Terminal Aerodrome Forecast
Issued by NWS Louisville, KY

Home | Current Version | Previous Version | Text Only | Print | Product List | Glossary On
Versions: 1 2 3 4 5 6 7 8 9 10 11 12 13 14 15
000
FTUS43 KLMK 282300
TAFSDF
TAF
KSDF 282325Z 0100/0206 07005KT P6SM OVC060
     FM010300 09005KT P6SM VCSH OVC050
     FM010500 12005KT 4SM -FZRAPL BR SCT020 OVC050
     FM011000 15005KT 3SM -FZRA BR OVC018
     FM011200 19005KT 5SM -SHRA BR OVC009=

USA.gov is the U.S. government's official web portal to all federal, state and local government web resources and services.